Time;durP1;ratioP1;P1;durP2;ratioP2;P2;SDS_P1;SDS_P2;PMS_P1;PMS_P2;Temp;Humidity;BMP_temperature;BMP_pressure;BME280_temperature;BME280_humidity;BME280_pressure;Samples;Min_cycle;Max_cycle;Signal;HPM_P1;HPM_P2
2021/06/13 00:00:15;;;;;;;15.93;7.43;;;;;;;-142.75;66.02;78397.44;5029431;28;20043;-72
2021/06/13 00:02:42;;;;;;;15.75;6.72;;;;;;;-142.75;66.61;78363.97;5031498;28;20432;-74
2021/06/13 00:05:09;;;;;;;15.50;5.82;;;;;;;-142.75;65.77;78354.13;5022464;28;20482;-73
2021/06/13 00:07:34;;;;;;;14.43;6.80;;;;;;;-142.75;65.68;78381.69;5033334;28;20044;-73
2021/06/13 00:09:59;;;;;;;18.35;7.03;;;;;;;-142.75;65.80;78393.50;5033175;28;20021;-73
2021/06/13 00:12:25;;;;;;;16.30;6.22;;;;;;;-142.75;65.55;78405.34;5032028;28;20100;-73
2021/06/13 00:14:50;;;;;;;16.20;7.18;;;;;;;-142.75;65.53;78417.16;5033166;28;20051;-74
2021/06/13 00:17:17;;;;;;;13.43;7.30;;;;;;;-142.75;65.56;78427.00;5031949;28;20491;-73
2021/06/13 00:19:43;;;;;;;14.52;6.15;;;;;;;-142.75;65.70;78434.88;5033067;28;20032;-73
2021/06/13 00:22:08;;;;;;;14.77;6.97;;;;;;;-142.75;66.11;78421.09;5031611;28;20375;-73
2021/06/13 00:24:34;;;;;;;15.93;6.82;;;;;;;-142.75;66.33;78413.22;5033071;28;20025;-73
2021/06/13 00:26:59;;;;;;;12.15;6.15;;;;;;;-142.75;65.90;78417.16;5033128;28;20029;-73
2021/06/13 00:29:24;;;;;;;16.88;6.57;;;;;;;-142.75;65.90;78427.00;5032906;28;20028;-74
2021/06/13 00:31:50;;;;;;;14.40;7.00;;;;;;;-142.75;65.82;78436.84;5032541;28;20033;-73
2021/06/13 00:34:15;;;;;;;13.20;6.53;;;;;;;-142.75;67.07;78407.31;5031715;28;20284;-73
2021/06/13 00:36:40;;;;;;;17.23;7.13;;;;;;;-142.75;67.22;78393.50;5032944;28;20021;-73
2021/06/13 00:39:06;;;;;;;15.47;6.70;;;;;;;-142.75;66.84;78379.72;5031664;28;20025;-73
2021/06/13 00:41:31;;;;;;;18.85;7.53;;;;;;;-142.75;66.67;78367.91;5032305;28;20268;-72
2021/06/13 00:43:57;;;;;;;13.85;5.80;;;;;;;-142.75;65.60;78381.69;5024652;28;20446;-73
2021/06/13 00:46:22;;;;;;;18.85;7.25;;;;;;;-142.75;65.57;78413.22;5015898;28;20475;-73
2021/06/13 00:48:48;;;;;;;15.52;7.15;;;;;;;-142.75;65.78;78425.03;5022002;28;20025;-73
2021/06/13 00:51:13;;;;;;;16.58;7.90;;;;;;;-142.75;65.94;78436.84;5014324;28;20061;-73
2021/06/13 00:53:39;;;;;;;13.77;6.60;;;;;;;-142.75;66.05;78438.81;5025985;28;20061;-73
2021/06/13 00:56:04;;;;;;;18.05;7.00;;;;;;;-142.75;66.21;78448.66;5031246;28;20025;-72
2021/06/13 00:58:30;;;;;;;13.38;6.30;;;;;;;-142.75;66.70;78434.88;5031942;28;20108;-72
2021/06/13 01:00:55;;;;;;;14.10;5.95;;;;;;;-142.75;66.04;78442.75;5031951;28;20025;-74
2021/06/13 01:03:21;;;;;;;17.65;7.05;;;;;;;-142.75;66.16;78456.53;5032401;28;20482;-73
2021/06/13 01:05:46;;;;;;;15.23;7.15;;;;;;;-142.75;66.32;78464.41;5032489;28;20029;-73
2021/06/13 01:08:22;;;;;;;16.98;6.10;;;;;;;-142.75;66.54;78468.34;5032223;28;20029;-72
2021/06/13 01:11:10;;;;;;;16.13;7.03;;;;;;;-142.75;66.61;78472.28;5031967;28;20110;-73
2021/06/13 01:13:56;;;;;;;15.23;7.15;;;;;;;-142.75;66.53;78476.22;5022100;28;20610;-73
2021/06/13 01:16:40;;;;;;;16.20;6.90;;;;;;;-142.75;67.04;78448.66;5031352;28;20637;-73
2021/06/13 01:19:44;;;;;;;21.95;7.50;;;;;;;-142.75;67.42;78425.03;5027961;28;20276;-74
2021/06/13 01:22:19;;;;;;;13.68;5.88;;;;;;;-142.75;67.56;78405.34;5030292;28;20422;-72
2021/06/13 01:25:16;;;;;;;18.08;6.55;;;;;;;-142.75;66.98;78436.84;5032101;28;20047;-73
2021/06/13 01:28:00;;;;;;;14.10;6.85;;;;;;;-142.75;67.27;78448.66;5030354;28;20029;-72
2021/06/13 01:30:28;;;;;;;21.45;7.82;;;;;;;-142.75;67.86;78417.16;5030371;28;20036;-73
2021/06/13 01:32:56;;;;;;;18.23;6.65;;;;;;;-142.75;67.45;78409.28;5031672;28;20028;-73
2021/06/13 01:35:25;;;;;;;19.65;7.10;;;;;;;-142.75;66.81;78440.78;5031732;28;20034;-72
2021/06/13 01:37:53;;;;;;;14.35;7.07;;;;;;;-142.75;66.82;78452.59;5031731;28;20021;-73
2021/06/13 01:40:21;;;;;;;14.55;6.75;;;;;;;-142.75;67.01;78460.47;5030055;28;20572;-73
2021/06/13 01:42:50;;;;;;;14.75;6.80;;;;;;;-142.75;67.04;78460.47;5031298;28;20033;-72
2021/06/13 01:45:21;;;;;;;14.40;7.13;;;;;;;-142.75;67.69;78446.69;5031690;28;20087;-73
2021/06/13 01:47:48;;;;;;;13.02;7.13;;;;;;;-142.75;67.67;78444.72;5026207;28;20028;-73
2021/06/13 01:50:15;;;;;;;16.75;7.05;;;;;;;-142.75;68.05;78425.03;5029971;28;20099;-73
2021/06/13 01:52:41;;;;;;;18.60;6.40;;;;;;;-142.75;68.29;78409.28;5030011;28;20510;-73
2021/06/13 01:55:08;;;;;;;18.60;7.28;;;;;;;-142.75;67.85;78409.28;5023547;28;20026;-73
2021/06/13 01:57:34;;;;;;;16.50;6.47;;;;;;;-142.75;67.03;78428.97;5011700;28;20018;-72
2021/06/13 02:00:00;;;;;;;;;;;;;;;-142.75;66.82;78428.97;5014194;28;20021;-72
2021/06/13 02:02:27;;;;;;;13.57;6.50;;;;;;;-142.75;66.89;78444.72;5031193;28;19999;-73
2021/06/13 02:04:54;;;;;;;18.48;7.13;;;;;;;-142.75;67.49;78448.66;5031250;28;20109;-73
2021/06/13 02:07:21;;;;;;;19.25;8.93;;;;;;;-142.75;67.76;78460.47;5031129;28;20506;-73
2021/06/13 02:09:48;;;;;;;21.55;8.30;;;;;;;-142.75;67.73;78464.41;5029522;28;20021;-72
2021/06/13 02:12:14;;;;;;;17.90;8.80;;;;;;;-142.75;67.90;78456.53;5030267;28;20025;-73
2021/06/13 02:14:43;;;;;;;23.10;7.85;;;;;;;-142.75;67.78;78460.47;5030990;28;20037;-73
2021/06/13 02:17:09;;;;;;;15.50;7.85;;;;;;;-142.75;67.32;78468.34;5029805;28;20033;-73
2021/06/13 02:19:36;;;;;;;16.90;8.02;;;;;;;-142.75;67.23;78472.28;5030876;28;20021;-72
2021/06/13 02:22:02;;;;;;;14.27;6.72;;;;;;;-142.75;67.41;78476.22;5027936;28;20025;-73
2021/06/13 02:24:31;;;;;;;14.82;6.82;;;;;;;-142.75;67.38;78482.13;5029706;28;20018;-73
2021/06/13 02:26:57;;;;;;;13.85;7.32;;;;;;;-142.75;67.70;78486.06;5030872;28;20025;-72
2021/06/13 02:29:23;;;;;;;;;;;;;;;-142.75;67.76;78491.97;5031486;28;20489;-73
2021/06/13 02:31:49;;;;;;;16.42;7.15;;;;;;;-142.75;67.78;78488.03;5026098;28;19975;-73
2021/06/13 02:34:21;;;;;;;16.40;7.35;;;;;;;-142.75;68.00;78484.09;5021635;28;20482;-73
2021/06/13 02:36:51;;;;;;;14.52;7.28;;;;;;;-142.75;67.81;78490.00;5030648;28;20166;-73
2021/06/13 02:39:17;;;;;;;17.55;7.60;;;;;;;-142.75;67.58;78490.00;5030704;28;20475;-73
2021/06/13 02:41:43;;;;;;;;;;;;;;;-142.75;67.39;78491.97;5029441;28;20025;-74
2021/06/13 02:44:09;;;;;;;14.60;7.53;;;;;;;-142.75;67.32;78497.91;5013464;28;19917;-73
2021/06/13 02:46:35;;;;;;;12.13;6.20;;;;;;;-142.75;67.32;78507.75;5017958;28;20479;-72
2021/06/13 02:49:01;;;;;;;14.23;6.53;;;;;;;-142.75;67.44;78505.78;5029459;28;20532;-72
2021/06/13 02:51:33;;;;;;;14.20;6.68;;;;;;;-142.75;67.69;78501.84;5030129;28;20037;-73
2021/06/13 02:54:01;;;;;;;19.77;7.45;;;;;;;-142.75;67.90;78499.88;5022139;28;20022;-73
2021/06/13 02:56:39;;;;;;;19.58;7.93;;;;;;;-142.75;68.48;78501.84;5021650;28;20033;-73
2021/06/13 02:59:41;;;;;;;15.73;6.90;;;;;;;-142.75;68.65;78499.88;5030701;28;20033;-72
2021/06/13 03:02:09;;;;;;;17.88;7.70;;;;;;;-142.75;69.05;78499.88;5029461;28;20367;-72
2021/06/13 03:04:36;;;;;;;17.20;7.32;;;;;;;-142.75;68.76;78491.97;5029235;28;20029;-74
2021/06/13 03:07:03;;;;;;;19.25;7.50;;;;;;;-142.75;68.62;78503.81;5030891;28;20687;-73
2021/06/13 03:09:30;;;;;;;14.25;7.25;;;;;;;-142.75;68.18;78513.66;5030523;28;20029;-73
2021/06/13 03:11:56;;;;;;;21.38;8.23;;;;;;;-142.75;68.37;78505.78;5030128;28;20530;-71
2021/06/13 03:14:23;;;;;;;19.00;7.25;;;;;;;-142.75;68.37;78505.78;5030332;28;20041;-73
2021/06/13 03:16:49;;;;;;;16.80;6.97;;;;;;;-142.75;68.27;78509.72;5030317;28;20029;-73
2021/06/13 03:19:16;;;;;;;;;;;;;;;-142.75;68.28;78511.69;5030924;28;20029;-73
2021/06/13 03:21:44;;;;;;;16.15;7.10;;;;;;;-142.75;68.25;78509.72;5030391;28;19913;-72
2021/06/13 03:24:11;;;;;;;19.08;7.22;;;;;;;-142.75;68.15;78509.72;5032939;28;20048;-74
2021/06/13 03:26:37;;;;;;;20.55;7.70;;;;;;;-142.75;68.03;78505.78;5034199;28;20490;-72
2021/06/13 03:29:04;;;;;;;14.43;7.45;;;;;;;-142.75;68.73;78509.72;5034025;28;20021;-72
2021/06/13 03:31:30;;;;;;;16.42;7.68;;;;;;;-142.75;69.03;78511.69;5032537;28;20723;-73
2021/06/13 03:33:55;;;;;;;;;;;;;;;-142.75;69.41;78503.81;5033205;28;20021;-71
2021/06/13 03:36:22;;;;;;;27.90;7.90;;;;;;;-142.75;69.55;78497.91;5033980;28;19970;-73
2021/06/13 03:38:50;;;;;;;16.15;7.35;;;;;;;-142.75;69.52;78490.00;5033905;28;20032;-73
2021/06/13 03:41:18;;;;;;;19.73;6.80;;;;;;;-142.75;69.39;78478.19;5033384;28;20057;-72
2021/06/13 03:43:45;;;;;;;13.10;6.38;;;;;;;-142.75;69.05;78495.94;5033915;28;20037;-72
2021/06/13 03:46:10;;;;;;;14.45;6.55;;;;;;;-142.75;69.69;78499.88;5033783;28;20017;-73
2021/06/13 03:48:36;;;;;;;15.45;7.47;;;;;;;-142.75;69.57;78491.97;5032483;28;20091;-73
2021/06/13 03:51:03;;;;;;;15.80;7.35;;;;;;;-142.75;69.53;78493.97;5031559;28;20033;-73
2021/06/13 03:53:29;;;;;;;17.58;6.95;;;;;;;-142.75;69.60;78495.94;5033562;28;20087;-73
2021/06/13 03:55:58;;;;;;;13.23;6.82;;;;;;;-142.75;69.44;78497.91;5033518;28;20026;-73
2021/06/13 03:58:25;;;;;;;14.13;7.00;;;;;;;-142.75;69.23;78497.91;5032378;28;20025;-73
2021/06/13 04:00:51;;;;;;;18.33;6.72;;;;;;;-142.75;69.14;78491.97;5032206;28;20407;-73
2021/06/13 04:03:19;;;;;;;14.13;7.00;;;;;;;-142.75;68.88;78490.00;5032335;28;20029;-73
2021/06/13 04:05:46;;;;;;;13.77;6.90;;;;;;;-142.75;69.39;78490.00;5032160;28;20428;-73
2021/06/13 04:08:13;;;;;;;17.70;7.13;;;;;;;-142.75;70.03;78491.97;5032436;28;20087;-73
2021/06/13 04:10:40;;;;;;;14.43;6.38;;;;;;;-142.75;70.51;78486.06;5030331;28;20059;-72
2021/06/13 04:13:06;;;;;;;10.23;5.93;;;;;;;-142.75;70.46;78480.16;5032153;28;20051;-73
2021/06/13 04:15:31;;;;;;;14.20;5.78;;;;;;;-142.75;70.19;78484.09;5033248;28;20029;-73
2021/06/13 04:17:58;;;;;;;11.70;5.47;;;;;;;-142.75;69.88;78478.19;5033398;28;20079;-73
2021/06/13 04:20:24;;;;;;;13.32;5.07;;;;;;;-142.75;69.48;78478.19;5032902;28;20036;-73
2021/06/13 04:22:50;;;;;;;8.77;4.57;;;;;;;-142.75;69.51;78476.22;5033095;28;20029;-72
2021/06/13 04:25:17;;;;;;;14.15;5.80;;;;;;;-142.75;69.75;78468.34;5033025;28;20029;-73
2021/06/13 04:27:46;;;;;;;17.85;8.07;;;;;;;-142.75;70.02;78468.34;5033093;28;20031;-72
2021/06/13 04:30:12;;;;;;;26.00;10.18;;;;;;;-142.75;70.49;78452.59;5032652;28;20029;-72
2021/06/13 04:32:37;;;;;;;28.95;10.32;;;;;;;-142.75;70.73;78442.75;5033016;28;20043;-73
2021/06/13 04:35:04;;;;;;;21.35;8.98;;;;;;;-142.75;70.73;78430.94;5030631;28;20067;-73
2021/06/13 04:37:29;;;;;;;16.85;7.50;;;;;;;-142.75;70.52;78419.13;5032818;28;20597;-72
2021/06/13 04:39:54;;;;;;;16.00;7.68;;;;;;;-142.75;70.53;78401.38;5024117;28;20034;-71
2021/06/13 04:42:20;;;;;;;15.32;6.63;;;;;;;-142.75;70.24;78381.69;5011678;28;20171;-72
2021/06/13 04:44:46;;;;;;;18.30;8.05;;;;;;;-142.75;69.69;78391.53;5017376;28;20487;-73
2021/06/13 04:47:12;;;;;;;21.20;8.93;;;;;;;-142.75;69.78;78387.59;5015456;28;20026;-73
2021/06/13 04:49:37;;;;;;;23.90;8.75;;;;;;;-142.75;69.91;78377.75;5012896;28;20029;-73
2021/06/13 04:52:06;;;;;;;17.70;8.25;;;;;;;-142.75;69.72;78367.91;5020886;28;20041;-73
2021/06/13 04:54:47;;;;;;;17.85;8.10;;;;;;;-142.75;69.47;78362.00;5012661;28;20057;-72
2021/06/13 04:57:32;;;;;;;24.88;10.30;;;;;;;-142.75;69.54;78348.22;5021693;28;20025;-73
2021/06/13 04:59:57;;;;;;;30.08;10.23;;;;;;;-142.75;69.34;78342.31;5013531;28;20021;-73
2021/06/13 05:02:23;;;;;;;24.60;9.13;;;;;;;-142.75;69.29;78322.63;5032368;28;20549;-73
2021/06/13 05:04:48;;;;;;;19.60;9.57;;;;;;;-142.75;69.30;78310.81;5032338;28;20029;-72
2021/06/13 05:07:14;;;;;;;26.55;9.45;;;;;;;-142.75;69.31;78300.97;5032401;28;20163;-73
2021/06/13 05:09:42;;;;;;;24.25;10.45;;;;;;;-142.75;69.27;78281.25;5032526;28;20039;-72
2021/06/13 05:12:07;;;;;;;18.45;8.63;;;;;;;-142.75;69.12;78263.53;5031805;28;20614;-73
2021/06/13 05:14:33;;;;;;;21.85;9.02;;;;;;;-142.75;68.56;78241.88;5030971;28;20104;-73
2021/06/13 05:16:58;;;;;;;;;;;;;;;-142.75;67.65;78228.09;5032847;28;20044;-73
2021/06/13 05:19:23;;;;;;;19.23;9.10;;;;;;;-142.75;67.08;78214.31;5032006;28;19963;-73
2021/06/13 05:21:48;;;;;;;;;;;;;;;-142.75;66.29;78204.47;5032301;28;20057;-74
2021/06/13 05:24:13;;;;;;;26.95;8.63;;;;;;;-142.75;65.90;78180.81;5031967;28;19913;-74
2021/06/13 05:26:39;;;;;;;16.10;8.18;;;;;;;-142.75;66.31;78145.38;5032072;28;20036;-73
2021/06/13 05:29:05;;;;;;;;;;;;;;;-142.75;65.74;78125.69;5032342;28;20025;-74
2021/06/13 05:31:30;;;;;;;26.55;7.90;;;;;;;-142.75;65.40;78092.22;5030371;28;19920;-73
2021/06/13 05:33:56;;;;;;;17.27;7.15;;;;;;;-142.75;64.62;78060.72;5031656;28;20442;-73
2021/06/13 05:36:21;;;;;;;;;;;;;;;-142.75;63.66;78039.03;5032218;28;20036;-72
2021/06/13 05:38:46;;;;;;;19.58;6.28;;;;;;;-142.75;62.89;78005.56;5031764;28;20011;-73
2021/06/13 05:41:12;;;;;;;;;;;;;;;-142.75;61.74;77974.06;5051920;23;78358;-72
2021/06/13 05:43:41;;;;;;;14.07;5.65;;;;;;;-142.75;61.04;77932.72;5030701;28;19912;-74
2021/06/13 05:46:07;;;;;;;16.02;5.63;;;;;;;-142.75;60.18;77901.19;5032561;28;20620;-75
2021/06/13 05:48:33;;;;;;;14.18;6.90;;;;;;;-142.75;57.76;77873.63;5051581;28;20112;-74
2021/06/13 05:50:58;;;;;;;;;;;;;;;-142.75;56.08;77846.06;5052053;28;20025;-75
2021/06/13 05:53:24;;;;;;;16.60;5.93;;;;;;;-142.75;55.79;77810.63;5051336;28;19932;-75
2021/06/13 05:55:49;;;;;;;;;;;;;;;-142.75;55.43;77779.13;5033702;28;20032;-74
2021/06/13 05:58:15;;;;;;;18.58;6.95;;;;;;;-142.75;56.10;77743.69;5051288;28;19913;-75
2021/06/13 06:00:40;;;;;;;;;;;;;;;-142.75;55.13;77716.09;5050663;28;20031;-74
2021/06/13 06:03:06;;;;;;;13.52;5.60;;;;;;;-142.75;53.47;77680.66;5051570;28;20011;-75
2021/06/13 06:05:32;;;;;;;18.38;6.32;;;;;;;-142.75;53.68;77682.63;5033427;28;20380;-73
2021/06/13 06:07:58;;;;;;;;;;;;;;;-142.75;53.48;77629.47;5051643;28;20021;-76
2021/06/13 06:10:25;;;;;;;18.58;6.25;;;;;;;-142.75;51.76;77574.34;5050813;28;19913;-76
2021/06/13 06:12:52;;;;;;;16.77;5.32;;;;;;;-142.75;50.23;77562.53;5033101;28;20032;-75
2021/06/13 06:15:20;;;;;;;16.63;5.43;;;;;;;-142.75;50.26;77523.16;5050955;28;20021;-75
2021/06/13 06:17:46;;;;;;;16.02;4.20;;;;;;;-142.75;47.85;77578.28;5050876;28;20032;-73
2021/06/13 06:20:13;;;;;;;11.45;4.00;;;;;;;-142.75;49.58;77629.47;5032711;28;20110;-75
2021/06/13 06:22:39;;;;;;;12.45;3.88;;;;;;;-142.75;50.93;77572.38;5050717;28;20017;-75
2021/06/13 06:25:08;;;;;;;;;;;;;;;-142.75;48.50;77542.84;5051387;28;20500;-75
2021/06/13 06:27:33;;;;;;;10.90;4.10;;;;;;;-142.75;49.01;77471.97;5050843;28;19913;-75
2021/06/13 06:29:58;;;;;;;;;;;;;;;-142.75;47.87;77438.47;5050897;28;20033;-75
2021/06/13 06:32:24;;;;;;;11.13;4.22;;;;;;;-142.75;46.47;77418.78;5032681;28;19966;-75
2021/06/13 06:34:49;;;;;;;;;;;;;;;-142.75;45.67;77393.19;5033092;28;20029;-75
2021/06/13 06:37:14;;;;;;;13.70;4.00;;;;;;;-142.75;45.82;77442.41;5050703;28;19912;-73
2021/06/13 06:39:40;;;;;;;11.85;3.60;;;;;;;-142.75;46.54;77420.75;5050682;28;20482;-74
2021/06/13 06:42:05;;;;;;;11.60;3.78;;;;;;;-142.75;45.97;77318.38;5032185;28;20032;-75
2021/06/13 06:44:31;;;;;;;16.00;4.13;;;;;;;-142.75;45.18;77393.19;5050514;28;20017;-74
2021/06/13 06:47:01;;;;;;;;;;;;;;;-142.75;46.40;77401.06;5050919;28;20029;-74
2021/06/13 06:49:27;;;;;;;14.10;3.80;;;;;;;-142.75;44.93;77326.25;5032773;28;19912;-75
2021/06/13 06:51:52;;;;;;;11.02;3.90;;;;;;;-142.75;43.66;77355.78;5050058;28;20095;-74
2021/06/13 06:54:17;;;;;;;;;;;;;;;-142.75;43.89;77405.00;5050955;28;20021;-74
2021/06/13 06:56:43;;;;;;;12.40;4.20;;;;;;;-142.75;43.91;77389.25;5032901;28;20393;-72
2021/06/13 06:59:08;;;;;;;10.20;4.10;;;;;;;-142.75;44.75;77269.16;5054412;28;20036;-76
2021/06/13 07:01:33;;;;;;;13.32;3.67;;;;;;;-142.75;42.92;77151.03;5036343;28;20152;-75
2021/06/13 07:03:58;;;;;;;10.00;3.70;;;;;;;-142.75;41.88;77105.75;5036588;28;20025;-75
2021/06/13 07:06:24;;;;;;;14.05;3.75;;;;;;;-142.75;39.53;77115.59;5054441;28;20024;-76
2021/06/13 07:08:49;;;;;;;12.75;3.70;;;;;;;-142.75;40.17;77160.88;5054481;28;20031;-74
2021/06/13 07:11:14;;;;;;;11.45;3.90;;;;;;;-142.75;40.64;77216.00;5053970;28;20051;-72
2021/06/13 07:13:40;;;;;;;14.00;3.67;;;;;;;-142.75;41.33;77249.47;5036280;28;20103;-74
2021/06/13 07:16:05;;;;;;;11.35;3.45;;;;;;;-142.75;42.60;77188.44;5054188;28;20017;-74
2021/06/13 07:18:31;;;;;;;10.35;3.40;;;;;;;-142.75;40.21;77127.41;5054169;28;20108;-74
2021/06/13 07:20:56;;;;;;;13.65;3.80;;;;;;;-142.75;41.37;77284.91;5053973;28;20025;-74
2021/06/13 07:23:22;;;;;;;10.30;4.00;;;;;;;-142.75;43.07;77353.81;5054089;28;20025;-75
2021/06/13 07:25:47;;;;;;;11.73;3.78;;;;;;;-142.75;42.00;77298.69;5054106;28;20032;-73
2021/06/13 07:28:14;;;;;;;10.82;3.50;;;;;;;-142.75;42.59;77318.38;5054051;28;20025;-74
2021/06/13 07:30:40;;;;;;;15.70;4.35;;;;;;;-142.75;42.63;77149.06;5053481;28;20094;-75
2021/06/13 07:33:06;;;;;;;9.65;3.55;;;;;;;-142.75;41.40;76983.69;5053874;28;20029;-75
2021/06/13 07:35:32;;;;;;;14.07;3.33;;;;;;;-142.75;38.27;76875.41;5035900;28;20032;-75
2021/06/13 07:38:00;;;;;;;11.82;3.58;;;;;;;-142.75;37.30;76790.78;5054072;28;20433;-75
2021/06/13 07:40:26;;;;;;;7.05;3.38;;;;;;;-142.75;36.35;76678.56;5053692;28;20032;-76
2021/06/13 07:42:52;;;;;;;14.15;4.40;;;;;;;-142.75;37.05;76792.75;5053550;28;20055;-73
2021/06/13 07:45:17;;;;;;;9.57;3.72;;;;;;;-142.75;37.44;76920.69;5035712;28;20029;-75
2021/06/13 07:47:43;;;;;;;7.30;3.50;;;;;;;-142.75;38.29;76885.25;5035762;28;20021;-74
2021/06/13 07:50:11;;;;;;;12.95;4.00;;;;;;;-142.75;36.68;76725.81;5035326;28;20021;-75
2021/06/13 07:52:37;;;;;;;11.25;3.03;;;;;;;-142.75;34.00;76613.59;5053267;28;20043;-75
2021/06/13 07:55:05;;;;;;;9.35;3.33;;;;;;;-142.75;35.48;76749.44;5053547;28;20017;-74
2021/06/13 07:57:30;;;;;;;11.13;3.70;;;;;;;-142.75;35.34;76820.28;5052777;28;20116;-73
2021/06/13 07:59:56;;;;;;;12.18;3.60;;;;;;;-142.75;38.64;76999.44;5053142;28;20024;-73
2021/06/13 08:02:21;;;;;;;16.10;4.40;;;;;;;-142.75;38.27;76956.13;5035472;28;20040;-74
2021/06/13 08:04:52;;;;;;;9.73;3.40;;;;;;;-142.75;38.62;77003.38;5035505;28;20028;-75
2021/06/13 08:07:17;;;;;;;15.02;4.05;;;;;;;-142.75;41.32;77168.75;5053400;28;20040;-73
2021/06/13 08:09:42;;;;;;;10.93;3.80;;;;;;;-142.75;39.77;77117.56;5051084;28;20028;-74
2021/06/13 08:12:09;;;;;;;11.15;4.28;;;;;;;-142.75;39.49;77074.25;5050980;28;20078;-74
2021/06/13 08:14:34;;;;;;;13.38;4.55;;;;;;;-142.75;39.70;77090.00;5033546;28;20397;-74
2021/06/13 08:16:59;;;;;;;12.18;4.25;;;;;;;-142.75;38.28;76983.69;5033442;28;20029;-75
2021/06/13 08:19:25;;;;;;;12.25;3.13;;;;;;;-142.75;39.49;77007.31;5051283;28;20029;-73
2021/06/13 08:21:51;;;;;;;11.82;3.78;;;;;;;-142.75;38.43;77003.38;5050831;28;20106;-75
2021/06/13 08:24:16;;;;;;;8.82;3.88;;;;;;;-142.75;37.82;76944.31;5051279;28;20481;-73
2021/06/13 08:26:42;;;;;;;9.35;3.70;;;;;;;-142.75;39.26;77091.97;5052939;28;20059;-73
2021/06/13 08:29:07;;;;;;;14.18;4.43;;;;;;;-142.75;38.93;77074.25;5052923;28;20474;-73
2021/06/13 08:31:32;;;;;;;9.85;4.03;;;;;;;-142.75;38.51;76989.59;5052525;28;20055;-74
2021/06/13 08:33:58;;;;;;;12.07;3.65;;;;;;;-142.75;38.31;76893.13;5035128;28;20025;-74
2021/06/13 08:36:24;;;;;;;8.60;3.47;;;;;;;-142.75;36.46;76869.50;5052726;28;20017;-74
2021/06/13 08:38:52;;;;;;;12.63;4.18;;;;;;;-142.75;36.76;76895.09;5052689;28;20507;-74
2021/06/13 08:41:18;;;;;;;10.18;3.83;;;;;;;-142.75;35.77;76867.53;5052045;28;20021;-74
2021/06/13 08:43:48;;;;;;;13.57;3.53;;;;;;;-142.75;35.29;76790.78;5034724;28;20078;-73
2021/06/13 08:46:14;;;;;;;8.82;3.58;;;;;;;-142.75;36.13;76719.91;5052482;28;20021;-74
2021/06/13 08:48:44;;;;;;;10.68;3.80;;;;;;;-142.75;33.57;76560.44;5035232;28;20039;-74
2021/06/13 08:51:09;;;;;;;10.30;3.33;;;;;;;-142.75;34.76;76712.03;5052653;28;20035;-73
2021/06/13 08:53:34;;;;;;;9.50;3.78;;;;;;;-142.75;35.00;76802.56;5034289;28;20025;-74
2021/06/13 08:55:59;;;;;;;11.65;3.88;;;;;;;-142.75;36.73;76668.72;5052348;28;20386;-73
2021/06/13 08:58:25;;;;;;;11.10;3.78;;;;;;;-142.75;34.26;76570.28;5052415;28;20033;-75
2021/06/13 09:00:51;;;;;;;9.10;3.35;;;;;;;-142.75;33.07;76424.63;5051986;28;20033;-75
2021/06/13 09:03:18;;;;;;;7.32;3.15;;;;;;;-142.75;32.88;76454.16;5034381;28;20270;-74
2021/06/13 09:05:43;;;;;;;10.00;3.67;;;;;;;-142.75;32.48;76430.53;5052190;28;20027;-73
2021/06/13 09:08:10;;;;;;;9.32;3.53;;;;;;;-142.75;33.18;76603.75;5052104;28;20100;-73
2021/06/13 09:10:42;;;;;;;9.52;3.38;;;;;;;-142.75;34.20;76702.19;5051424;28;20028;-72
2021/06/13 09:13:09;;;;;;;9.95;3.70;;;;;;;-142.75;35.59;76784.88;5052107;28;20033;-74
2021/06/13 09:15:40;;;;;;;8.52;3.08;;;;;;;-142.75;35.51;76759.28;5051924;28;20501;-74
2021/06/13 09:18:08;;;;;;;11.13;3.65;;;;;;;-142.75;35.59;76684.47;5051932;28;20025;-72
2021/06/13 09:20:34;;;;;;;7.60;3.05;;;;;;;-142.75;33.42;76491.56;5033309;28;20494;-75
2021/06/13 09:23:10;;;;;;;8.23;2.95;;;;;;;-142.75;32.02;76302.59;5034198;28;20073;-74
2021/06/13 09:25:37;;;;;;;;;;;;;;;-142.75;30.50;76149.06;5052559;28;20052;-73
2021/06/13 09:28:07;;;;;;;8.77;2.80;;;;;;;-142.75;31.08;76068.38;5034047;28;19962;-76
2021/06/13 09:30:36;;;;;;;7.82;2.50;;;;;;;-142.75;29.04;76019.16;5033396;28;20029;-75
2021/06/13 09:33:04;;;;;;;8.85;2.55;;;;;;;-142.75;28.64;76259.28;5051648;28;20570;-73
2021/06/13 09:35:31;;;;;;;6.22;2.17;;;;;;;-142.75;30.37;76373.44;5051622;28;20067;-73
2021/06/13 09:38:06;;;;;;;5.43;2.30;;;;;;;-142.75;31.48;76164.81;5051386;28;20529;-73
2021/06/13 09:40:31;;;;;;;8.52;2.60;;;;;;;-142.75;27.94;76066.41;5051358;28;20033;-77
2021/06/13 09:43:08;;;;;;;8.70;2.63;;;;;;;-142.75;31.92;76259.28;5051574;28;20027;-76
2021/06/13 09:45:33;;;;;;;4.70;2.20;;;;;;;-142.75;29.99;76107.72;5033599;28;20031;-75
2021/06/13 09:48:00;;;;;;;7.93;2.50;;;;;;;-142.75;28.51;76048.69;5051229;28;20108;-76
2021/06/13 09:50:47;;;;;;;9.75;2.97;;;;;;;-142.75;28.53;75991.59;5033733;28;20457;-75
2021/06/13 09:53:21;;;;;;;;;;;;;;;-142.75;29.01;76011.28;5033996;28;20495;-74
2021/06/13 09:55:59;;;;;;;8.32;2.53;;;;;;;-142.75;28.66;75997.50;5051247;28;19917;-75
2021/06/13 09:58:24;;;;;;;7.95;2.47;;;;;;;-142.75;28.26;76054.59;5033148;28;20075;-75
2021/06/13 10:00:50;;;;;;;4.60;2.40;;;;;;;-142.75;28.81;75926.66;5050184;28;20594;-75
2021/06/13 10:03:22;;;;;;;8.07;2.50;;;;;;;-142.75;28.00;75967.97;5050079;28;20482;-74
2021/06/13 10:05:56;;;;;;;7.60;2.80;;;;;;;-142.75;29.66;76210.06;5050389;28;20025;-73
2021/06/13 10:08:21;;;;;;;8.85;2.60;;;;;;;-142.75;32.16;76359.66;5032172;28;20033;-73
2021/06/13 10:10:46;;;;;;;7.03;2.75;;;;;;;-142.75;31.47;76438.41;5032527;28;20025;-74
2021/06/13 10:13:12;;;;;;;5.72;2.65;;;;;;;-142.75;31.01;76418.72;5032535;28;20448;-75
2021/06/13 10:15:37;;;;;;;9.02;2.38;;;;;;;-142.75;32.99;76320.31;5050231;28;20489;-74
2021/06/13 10:18:10;;;;;;;4.68;1.88;;;;;;;-142.75;30.42;76121.50;5050197;28;20025;-75
2021/06/13 10:20:36;;;;;;;8.48;2.60;;;;;;;-142.75;29.69;75979.78;5049505;28;20103;-75
2021/06/13 10:23:01;;;;;;;7.60;1.90;;;;;;;-142.75;28.70;75908.94;5032036;28;20116;-75
2021/06/13 10:25:26;;;;;;;5.78;1.92;;;;;;;-142.75;28.37;75849.91;5050234;28;20017;-74
2021/06/13 10:27:52;;;;;;;7.55;2.08;;;;;;;-142.75;28.35;75885.31;5050794;28;20036;-75
2021/06/13 10:30:17;;;;;;;5.65;1.90;;;;;;;-142.75;29.46;75920.75;5049363;28;20033;-74
2021/06/13 10:32:44;;;;;;;5.78;1.92;;;;;;;-142.75;27.91;75889.25;5044212;28;20052;-75
2021/06/13 10:35:10;;;;;;;4.70;1.85;;;;;;;-142.75;27.48;75887.28;5049059;28;20030;-76
2021/06/13 10:37:36;;;;;;;7.25;2.15;;;;;;;-142.75;27.72;75869.56;5049122;28;20037;-75
2021/06/13 10:40:02;;;;;;;5.68;2.05;;;;;;;-142.75;27.55;75845.97;5031112;28;20394;-76
2021/06/13 10:42:28;;;;;;;8.50;2.08;;;;;;;-142.75;28.10;75810.53;5049080;28;20025;-75
2021/06/13 10:44:58;;;;;;;4.70;1.98;;;;;;;-142.75;27.09;75786.91;5049140;28;20020;-75
2021/06/13 10:47:25;;;;;;;5.47;1.83;;;;;;;-142.75;27.14;75889.25;5045683;28;20024;-75
2021/06/13 10:49:53;;;;;;;3.63;1.73;;;;;;;-142.75;26.10;75899.09;5030652;28;20421;-73
2021/06/13 10:52:23;;;;;;;5.38;2.38;;;;;;;-142.75;28.72;76202.19;5049208;28;20032;-74
2021/06/13 10:54:51;;;;;;;5.38;2.20;;;;;;;-142.75;29.27;76204.16;5030984;28;20498;-75
2021/06/13 10:57:17;;;;;;;7.22;2.38;;;;;;;-142.75;31.24;76204.16;5045349;28;20028;-74
2021/06/13 10:59:46;;;;;;;6.05;2.13;;;;;;;-142.75;30.27;76076.22;5014695;28;20801;-74
2021/06/13 11:02:23;;;;;;;7.55;2.00;;;;;;;-142.75;29.50;75956.19;5020844;28;20506;-76
2021/06/13 11:04:52;;;;;;;6.72;2.58;;;;;;;-142.75;28.33;75905.00;5049041;28;20540;-76
2021/06/13 11:07:27;;;;;;;7.43;2.40;;;;;;;-142.75;27.95;75849.91;5030380;28;20029;-75
2021/06/13 11:10:09;;;;;;;6.63;2.05;;;;;;;-142.75;29.67;75834.16;5049239;28;20051;-77
2021/06/13 11:12:49;;;;;;;4.57;2.22;;;;;;;-142.75;28.57;75826.28;5050062;28;20435;-78
2021/06/13 11:15:47;;;;;;;7.15;2.72;;;;;;;-142.75;27.24;75845.97;5031525;28;20057;-76
2021/06/13 11:18:29;;;;;;;7.70;2.40;;;;;;;-142.75;28.04;75893.19;5048592;28;20071;-74